createdAt,value
2024-01-24T00:01:33.476Z,100720.94
2024-01-24T00:04:06.486Z,100716.59
2024-01-24T00:06:40.011Z,100713.16
2024-01-24T00:09:12.971Z,100711.47
2024-01-24T00:11:45.949Z,100720.31
2024-01-24T00:14:19.019Z,100732.72
2024-01-24T00:16:53.205Z,100719.53
2024-01-24T00:19:26.287Z,100710.78
2024-01-24T00:21:59.198Z,100718.72
2024-01-24T00:24:32.149Z,100718.72
2024-01-24T00:27:05.333Z,100696.75
2024-01-24T00:29:38.215Z,100712.59
2024-01-24T00:32:12.426Z,100710.88
2024-01-24T00:34:45.324Z,100690.59
2024-01-24T00:37:18.345Z,100678.28
2024-01-24T00:39:51.230Z,100688.88
2024-01-24T00:42:24.253Z,100688.91
2024-01-24T00:44:57.501Z,100684.53
2024-01-24T00:47:31.761Z,100696.91
2024-01-24T00:50:05.891Z,100689.84
2024-01-24T00:52:38.866Z,100677.56
2024-01-24T00:55:11.799Z,100677.56
2024-01-24T00:57:44.754Z,100672.31
2024-01-24T01:00:18.405Z,100667.91
2024-01-24T01:02:52.858Z,100657.38
2024-01-24T01:05:26.570Z,100645.06
2024-01-24T01:07:59.444Z,100638.00
2024-01-24T01:10:32.343Z,100638.88
2024-01-24T01:13:05.910Z,100616.84
2024-01-24T01:15:38.880Z,100600.03
2024-01-24T01:18:13.169Z,100574.50
2024-01-24T01:20:46.057Z,100569.16
2024-01-24T01:23:18.927Z,100563.91
2024-01-24T01:25:51.801Z,100551.53
2024-01-24T01:28:24.708Z,100551.53
2024-01-24T01:30:57.596Z,100534.81
2024-01-24T01:33:31.951Z,100522.47
2024-01-24T01:36:13.971Z,100519.84
2024-01-24T01:38:55.664Z,100494.31
2024-01-24T01:41:28.605Z,100508.47
2024-01-24T01:44:01.447Z,100516.47
2024-01-24T01:46:34.947Z,100523.59
2024-01-24T01:49:09.686Z,100517.47
2024-01-24T01:51:42.881Z,100504.38
2024-01-24T01:54:17.042Z,100500.00
2024-01-24T01:56:49.970Z,100490.31
2024-01-24T01:59:22.927Z,100481.53
2024-01-24T02:01:59.026Z,100480.63
2024-01-24T02:04:33.280Z,100480.63
2024-01-24T02:07:07.330Z,100467.41
2024-01-24T02:09:40.323Z,100469.22
2024-01-24T02:12:13.216Z,100461.31
2024-01-24T02:14:46.140Z,100442.00
2024-01-24T02:17:19.069Z,100451.75
2024-01-24T02:19:53.445Z,100442.09
2024-01-24T02:22:26.414Z,100432.47
2024-01-24T02:25:00.919Z,100428.09
2024-01-24T02:27:33.947Z,100404.38
2024-01-24T02:30:07.902Z,100400.91
2024-01-24T02:32:40.771Z,100401.66
2024-01-24T02:35:13.708Z,100401.88
2024-01-24T02:37:46.561Z,100393.13
2024-01-24T02:40:20.869Z,100402.88
2024-01-24T02:42:53.913Z,100390.53
2024-01-24T02:45:26.882Z,100365.91
2024-01-24T02:47:59.844Z,100350.06
2024-01-24T02:50:32.817Z,100352.69
2024-01-24T02:53:05.889Z,100341.28
2024-01-24T02:55:40.082Z,100342.16
2024-01-24T02:58:12.949Z,100344.78
2024-01-24T03:00:46.254Z,100325.34
2024-01-24T03:03:19.183Z,100319.16
2024-01-24T03:05:52.073Z,100313.84
2024-01-24T03:08:24.916Z,100288.31
2024-01-24T03:10:59.088Z,100275.09
2024-01-24T03:13:32.001Z,100253.97
2024-01-24T03:16:05.141Z,100252.22
2024-01-24T03:18:38.676Z,100244.31
2024-01-24T03:21:16.479Z,100242.50
2024-01-24T03:23:49.431Z,100235.47
2024-01-24T03:26:23.634Z,100242.50
2024-01-24T03:28:56.496Z,100248.66
2024-01-24T03:31:29.357Z,100237.22
2024-01-24T03:34:02.315Z,100221.38
2024-01-24T03:36:35.377Z,100229.31
2024-01-24T03:39:10.617Z,100224.91
2024-01-24T03:41:44.854Z,100217.03
2024-01-24T03:44:17.676Z,100207.34
2024-01-24T03:46:50.555Z,100197.63
2024-01-24T03:49:23.651Z,100195.00
2024-01-24T03:51:56.644Z,100186.13
2024-01-24T03:54:29.603Z,100175.50
2024-01-24T03:57:03.819Z,100186.84
2024-01-24T03:59:38.873Z,100179.72
2024-01-24T04:02:12.181Z,100184.91
2024-01-24T04:04:46.335Z,100166.31
2024-01-24T04:07:19.340Z,100144.16
2024-01-24T04:09:52.312Z,100124.69
2024-01-24T04:12:26.650Z,100114.94
2024-01-24T04:14:59.717Z,100109.56
2024-01-24T04:17:32.687Z,100108.63
2024-01-24T04:20:06.563Z,100098.88
2024-01-24T04:22:39.446Z,100094.34
2024-01-24T04:25:12.693Z,100071.44
2024-01-24T04:27:47.141Z,100071.44
2024-01-24T04:30:20.193Z,100082.91
2024-01-24T04:32:53.254Z,100067.06
2024-01-24T04:35:26.125Z,100055.63
2024-01-24T04:37:59.003Z,100057.38
2024-01-24T04:40:31.863Z,100040.63
2024-01-24T04:43:06.172Z,100033.50
2024-01-24T04:45:39.085Z,100015.94
2024-01-24T04:48:12.289Z,100008.00
2024-01-24T04:50:45.503Z,100009.72
2024-01-24T04:53:18.507Z,100011.47
2024-01-24T04:55:51.392Z,100009.66
2024-01-24T04:58:25.620Z,99999.91
2024-01-24T05:00:58.613Z,99993.72
2024-01-24T05:03:31.617Z,99993.69
2024-01-24T05:06:10.354Z,99981.31
2024-01-24T05:08:44.299Z,99971.59
2024-01-24T05:11:17.175Z,99968.00
2024-01-24T05:13:51.510Z,99990.88
2024-01-24T05:16:24.423Z,99993.50
2024-01-24T05:18:57.519Z,99997.88
2024-01-24T05:21:30.509Z,99993.47
2024-01-24T05:24:03.596Z,99981.09
2024-01-24T05:26:36.788Z,99959.94
2024-01-24T05:29:11.025Z,99950.19
2024-01-24T05:31:46.046Z,99943.19
2024-01-24T05:34:19.645Z,99924.75
2024-01-24T05:36:54.785Z,99919.53
2024-01-24T05:39:27.897Z,99908.16
2024-01-24T05:42:00.759Z,99904.66
2024-01-24T05:44:35.389Z,99899.47
2024-01-24T05:47:08.280Z,99885.41
2024-01-24T05:49:41.380Z,99887.28
2024-01-24T05:52:14.217Z,99868.81
2024-01-24T05:54:47.187Z,99851.31
2024-01-24T05:57:20.110Z,99894.56
2024-01-24T05:59:54.385Z,99841.88
2024-01-24T06:02:27.312Z,99821.69
2024-01-24T06:05:00.483Z,99813.81
2024-01-24T06:07:33.992Z,99799.84
2024-01-24T06:10:08.110Z,99823.78
2024-01-24T06:12:41.041Z,99789.47
2024-01-24T06:15:15.253Z,99789.53
2024-01-24T06:17:48.434Z,99781.66
2024-01-24T06:20:21.357Z,99777.31
2024-01-24T06:22:54.232Z,99770.28
2024-01-24T06:25:27.138Z,99771.13
2024-01-24T06:28:00.063Z,99750.00
2024-01-24T06:30:34.598Z,99749.19
2024-01-24T06:33:07.581Z,99729.88
2024-01-24T06:35:40.503Z,99725.44
2024-01-24T06:38:14.123Z,99719.34
2024-01-24T06:40:46.991Z,99722.91
2024-01-24T06:43:21.644Z,99687.75
2024-01-24T06:45:56.124Z,99693.03
2024-01-24T06:48:29.127Z,99671.91
2024-01-24T06:51:02.208Z,99643.69
2024-01-24T06:53:35.084Z,99631.38
2024-01-24T06:56:09.741Z,99628.75
2024-01-24T06:58:42.779Z,99602.34
2024-01-24T07:01:17.145Z,99610.25
2024-01-24T07:03:50.229Z,99584.69
2024-01-24T07:06:23.278Z,99568.75
2024-01-24T07:08:57.414Z,99565.19
2024-01-24T07:11:30.887Z,99556.28
2024-01-24T07:14:04.518Z,99533.31
2024-01-24T07:16:39.225Z,99537.66
2024-01-24T07:19:12.192Z,99547.19
2024-01-24T07:21:45.242Z,99525.06
2024-01-24T07:24:18.230Z,99521.38
2024-01-24T07:26:51.075Z,99521.34
2024-01-24T07:29:24.293Z,99515.88
2024-01-24T07:31:58.497Z,99512.28
2024-01-24T07:34:31.761Z,99515.75
2024-01-24T07:37:05.172Z,99488.31
2024-01-24T07:39:38.253Z,99474.19
2024-01-24T07:42:11.153Z,99486.38
2024-01-24T07:44:44.054Z,99460.84
2024-01-24T07:47:20.729Z,99450.97
2024-01-24T07:49:54.515Z,99439.41
2024-01-24T07:52:36.402Z,99428.75
2024-01-24T07:55:17.571Z,99418.94
2024-01-24T07:57:50.925Z,99411.81
2024-01-24T08:00:23.963Z,99406.47
2024-01-24T08:02:59.251Z,99403.84
2024-01-24T08:05:33.462Z,99400.25
2024-01-24T08:08:06.996Z,99396.81
2024-01-24T08:10:40.034Z,99389.69
2024-01-24T08:13:12.967Z,99380.00
2024-01-24T08:15:47.944Z,99375.56
2024-01-24T08:18:22.433Z,99372.91
2024-01-24T08:20:56.511Z,99354.47
2024-01-24T08:23:37.897Z,99339.06
2024-01-24T08:26:15.890Z,99338.50
2024-01-24T08:28:49.029Z,99351.72
2024-01-24T08:31:22.049Z,99337.53
2024-01-24T08:33:56.534Z,99334.84
2024-01-24T08:36:29.545Z,99338.28
2024-01-24T08:39:03.913Z,99356.72
2024-01-24T08:41:36.984Z,99316.97
2024-01-24T08:44:09.927Z,99311.56
2024-01-24T08:46:43.486Z,99353.81
2024-01-24T08:49:19.580Z,99332.56
2024-01-24T08:51:53.346Z,99321.03
2024-01-24T08:54:26.695Z,99297.13
2024-01-24T08:57:00.382Z,99309.31
2024-01-24T08:59:33.868Z,99326.84
2024-01-24T09:02:08.784Z,99325.81
2024-01-24T09:04:43.753Z,99316.97
2024-01-24T09:07:19.421Z,99311.56
2024-01-24T09:09:54.303Z,99274.41
2024-01-24T09:12:36.930Z,99290.97
2024-01-24T09:15:11.344Z,99296.16
2024-01-24T09:17:45.343Z,99294.25
2024-01-24T09:20:20.397Z,99284.38
2024-01-24T09:22:54.050Z,99281.63
2024-01-24T09:25:27.465Z,99296.47
2024-01-24T09:28:01.278Z,99262.88
2024-01-24T09:30:34.773Z,99263.59
2024-01-24T09:33:08.766Z,99242.19
2024-01-24T09:35:45.393Z,99233.69
2024-01-24T09:38:19.089Z,99250.53
2024-01-24T09:40:52.817Z,99225.69
2024-01-24T09:43:31.261Z,99248.38
2024-01-24T09:46:59.473Z,99255.09
2024-01-24T09:49:34.221Z,99242.66
2024-01-24T09:52:10.687Z,99229.16
2024-01-24T09:54:46.301Z,99236.78
2024-01-24T09:57:20.120Z,99226.72
2024-01-24T09:59:57.068Z,99219.22
2024-01-24T10:02:30.770Z,99216.13
2024-01-24T10:05:07.185Z,99208.69
2024-01-24T10:07:45.304Z,99207.41
2024-01-24T10:10:19.358Z,99209.84
2024-01-24T10:12:53.012Z,99206.97
2024-01-24T10:15:26.530Z,99198.81
2024-01-24T10:17:59.972Z,99215.44
2024-01-24T10:20:33.250Z,99206.41
2024-01-24T10:23:08.117Z,99191.84
2024-01-24T10:25:42.512Z,99187.72
2024-01-24T10:28:18.376Z,99193.38
2024-01-24T10:30:51.581Z,99177.88
2024-01-24T10:33:25.037Z,99171.19
2024-01-24T10:38:33.925Z,99158.41
2024-01-24T10:41:12.146Z,99172.22
2024-01-24T10:43:49.733Z,99164.50
2024-01-24T10:46:24.781Z,99167.75
2024-01-24T10:48:58.772Z,99148.75
2024-01-24T10:51:32.722Z,99162.50
2024-01-24T10:54:09.676Z,99159.53
2024-01-24T10:56:48.160Z,99137.53
2024-01-24T10:59:22.392Z,99136.75
2024-01-24T11:01:55.768Z,99138.16
2024-01-24T11:04:30.895Z,99154.72
2024-01-24T11:07:08.455Z,99153.88
2024-01-24T11:09:54.460Z,99143.41
2024-01-24T11:12:27.983Z,99157.63
2024-01-24T11:15:06.697Z,99146.31
2024-01-24T11:17:41.029Z,99149.03
2024-01-24T11:20:15.355Z,99147.22
2024-01-24T11:22:49.453Z,99146.38
2024-01-24T11:25:39.719Z,99136.34
2024-01-24T11:28:13.075Z,99133.78
2024-01-24T11:30:46.705Z,99131.72
2024-01-24T11:33:20.036Z,99137.66
2024-01-24T11:35:55.274Z,99131.13
2024-01-24T11:38:36.070Z,99145.09
2024-01-24T11:41:25.303Z,99101.34
2024-01-24T11:43:58.771Z,99131.38
2024-01-24T11:46:32.524Z,99122.50
2024-01-24T11:49:08.163Z,99123.59
2024-01-24T11:51:43.420Z,99118.88
2024-01-24T11:54:16.624Z,99120.25
2024-01-24T11:56:51.174Z,99123.50
2024-01-24T11:59:24.176Z,99131.03
2024-01-24T12:01:57.505Z,99135.31
2024-01-24T12:04:30.693Z,99133.81
2024-01-24T12:07:04.078Z,99132.63
2024-01-24T12:09:37.290Z,99129.00
2024-01-24T12:12:12.684Z,99116.59
2024-01-24T12:14:46.608Z,99117.09
2024-01-24T12:17:20.269Z,99103.44
2024-01-24T12:19:53.821Z,99113.97
2024-01-24T12:22:30.388Z,99116.34
2024-01-24T12:25:05.035Z,99107.34
2024-01-24T12:27:39.469Z,99120.78
2024-01-24T12:30:15.891Z,99121.09
2024-01-24T12:32:50.307Z,99138.19
2024-01-24T12:35:26.052Z,99128.31
2024-01-24T12:38:01.081Z,99137.88
2024-01-24T12:40:34.287Z,99132.84
2024-01-24T12:43:09.775Z,99139.63
2024-01-24T12:45:43.250Z,99125.22
2024-01-24T12:48:23.094Z,99140.94
2024-01-24T12:50:58.102Z,99139.56
2024-01-24T12:53:33.225Z,99132.72
2024-01-24T12:56:07.812Z,99125.00
2024-01-24T12:58:42.624Z,99136.53
2024-01-24T13:01:15.863Z,99131.88
2024-01-24T13:03:49.273Z,99128.91
2024-01-24T13:06:23.222Z,99117.78
2024-01-24T13:08:56.021Z,99126.44
2024-01-24T13:11:29.455Z,99128.91
2024-01-24T13:14:04.109Z,99122.81
2024-01-24T13:16:37.677Z,99123.00
2024-01-24T13:19:11.684Z,99127.56
2024-01-24T13:21:46.422Z,99120.31
2024-01-24T13:24:20.177Z,99105.09
2024-01-24T13:26:55.683Z,99059.88
2024-01-24T13:29:31.585Z,99095.59
2024-01-24T13:32:05.265Z,99114.16
2024-01-24T13:34:38.704Z,99107.00
2024-01-24T13:37:12.580Z,99109.69
2024-01-24T13:39:48.075Z,99113.28
2024-01-24T13:42:21.964Z,99103.94
2024-01-24T13:44:58.670Z,99094.13
2024-01-24T13:47:35.967Z,99089.50
2024-01-24T13:50:14.903Z,99089.69
2024-01-24T13:52:48.712Z,99104.47
2024-01-24T13:55:26.694Z,99101.41
2024-01-24T13:58:02.167Z,99093.72
2024-01-24T14:00:37.347Z,99099.78
2024-01-24T14:03:12.484Z,99094.31
2024-01-24T14:05:48.615Z,99096.69
2024-01-24T14:08:23.141Z,99098.13
2024-01-24T14:10:57.354Z,99097.22
2024-01-24T14:13:31.308Z,99085.31
2024-01-24T14:16:08.823Z,99090.09
2024-01-24T14:18:43.052Z,99095.44
2024-01-24T14:21:24.308Z,99100.03
2024-01-24T14:23:59.494Z,99094.38
2024-01-24T14:26:34.898Z,99114.50
2024-01-24T14:29:11.301Z,99118.41
2024-01-24T14:31:49.112Z,99121.50
2024-01-24T14:37:11.072Z,99122.25
2024-01-24T14:39:45.000Z,99123.69
2024-01-24T14:42:18.109Z,99141.69
2024-01-24T14:44:51.869Z,99150.72
2024-01-24T14:47:26.121Z,99153.00
2024-01-24T14:49:59.700Z,99143.97
2024-01-24T14:52:32.671Z,99141.03
2024-01-24T14:55:06.568Z,99153.47
2024-01-24T14:57:39.965Z,99145.88
2024-01-24T15:00:14.240Z,99150.59
2024-01-24T15:02:48.802Z,99169.53
2024-01-24T15:05:25.378Z,99186.75
2024-01-24T15:07:58.586Z,99192.44
2024-01-24T15:10:31.585Z,99191.94
2024-01-24T15:13:04.682Z,99187.06
2024-01-24T15:15:37.871Z,99188.47
2024-01-24T15:18:12.315Z,99195.19
2024-01-24T15:20:53.909Z,99196.41
2024-01-24T15:23:36.182Z,99193.22
2024-01-24T15:26:11.215Z,99199.69
2024-01-24T15:28:44.335Z,99189.19
2024-01-24T15:31:19.152Z,99187.56
2024-01-24T15:33:54.150Z,99185.84
2024-01-24T15:36:30.828Z,99194.69
2024-01-24T15:39:08.479Z,99195.63
2024-01-24T15:41:42.185Z,99197.44
2024-01-24T15:44:15.269Z,99199.25
2024-01-24T15:46:48.188Z,99193.13
2024-01-24T15:49:22.448Z,99201.38
2024-01-24T15:51:55.506Z,99198.81
2024-01-24T15:54:28.633Z,99209.66
2024-01-24T15:57:01.713Z,99208.78
2024-01-24T15:59:34.940Z,99201.66
2024-01-24T16:02:08.003Z,99212.81
2024-01-24T16:04:42.983Z,99204.75
2024-01-24T16:07:16.336Z,99215.56
2024-01-24T16:09:49.337Z,99210.16
2024-01-24T16:12:23.518Z,99211.84
2024-01-24T16:14:56.477Z,99211.00
2024-01-24T16:17:29.398Z,99212.81
2024-01-24T16:20:04.133Z,99215.47
2024-01-24T16:22:39.212Z,99207.50
2024-01-24T16:25:19.599Z,99201.28
2024-01-24T16:27:52.663Z,99203.00
2024-01-24T16:30:28.862Z,99203.88
2024-01-24T16:33:02.498Z,99198.38
2024-01-24T16:35:36.788Z,99202.84
2024-01-24T16:38:10.382Z,99204.66
2024-01-24T16:40:43.474Z,99202.94
2024-01-24T16:43:16.689Z,99204.66
2024-01-24T16:45:50.554Z,99201.13
2024-01-24T16:48:23.926Z,99205.59
2024-01-24T16:50:59.309Z,99203.78
2024-01-24T16:53:36.586Z,99202.75
2024-01-24T16:56:09.737Z,99191.34
2024-01-24T16:58:42.772Z,99200.25
2024-01-24T17:01:15.703Z,99189.88
2024-01-24T17:03:50.531Z,99187.38
2024-01-24T17:06:27.310Z,99187.63
2024-01-24T17:09:00.199Z,99200.94
2024-01-24T17:11:33.018Z,99204.50
2024-01-24T17:14:06.436Z,99194.69
2024-01-24T17:16:40.484Z,99192.97
2024-01-24T17:19:13.617Z,99188.59
2024-01-24T17:21:48.466Z,99182.41
2024-01-24T17:24:21.957Z,99204.59
2024-01-24T17:26:54.891Z,99184.97
2024-01-24T17:29:27.792Z,99194.78
2024-01-24T17:32:00.937Z,99189.28
2024-01-24T17:34:34.156Z,99189.09
2024-01-24T17:37:08.897Z,99192.44
2024-01-24T17:39:42.145Z,99201.13
2024-01-24T17:42:15.825Z,99193.84
2024-01-24T17:44:48.833Z,99202.41
2024-01-24T17:47:24.095Z,99191.56
2024-01-24T17:49:57.356Z,99195.09
2024-01-24T17:52:31.671Z,99198.59
2024-01-24T17:55:13.204Z,99201.25
2024-01-24T17:57:47.986Z,99199.47
2024-01-24T18:00:24.563Z,99186.16
2024-01-24T18:03:00.339Z,99183.59
2024-01-24T18:05:38.150Z,99200.50
2024-01-24T18:08:12.807Z,99197.94
2024-01-24T18:10:50.962Z,99205.16
2024-01-24T18:13:27.404Z,99192.88
2024-01-24T18:16:00.549Z,99186.78
2024-01-24T18:18:34.510Z,99191.34
2024-01-24T18:21:09.251Z,99192.34
2024-01-24T18:23:44.623Z,99183.63
2024-01-24T18:26:22.952Z,99188.94
2024-01-24T18:28:56.205Z,99183.69
2024-01-24T18:31:29.082Z,99186.34
2024-01-24T18:34:02.038Z,99179.31
2024-01-24T18:36:35.297Z,99185.56
2024-01-24T18:39:12.853Z,99158.84
2024-01-24T18:41:45.971Z,99185.69
2024-01-24T18:44:20.730Z,99184.22
2024-01-24T18:46:56.174Z,99181.91
2024-01-24T18:49:29.246Z,99184.72
2024-01-24T18:52:03.092Z,99184.72
2024-01-24T18:54:37.533Z,99181.56
2024-01-24T18:57:12.052Z,99186.69
2024-01-24T18:59:47.055Z,99189.13
2024-01-24T19:02:20.327Z,99175.03
2024-01-24T19:04:53.486Z,99181.38
2024-01-24T19:07:26.645Z,99192.81
2024-01-24T19:10:01.364Z,99184.72
2024-01-24T19:12:34.543Z,99189.13
2024-01-24T19:15:08.707Z,99189.97
2024-01-24T19:17:41.799Z,99187.38
2024-01-24T19:20:15.934Z,99181.97
2024-01-24T19:22:49.194Z,99177.59
2024-01-24T19:25:23.626Z,99189.19
2024-01-24T19:27:56.635Z,99194.53
2024-01-24T19:30:29.614Z,99193.75
2024-01-24T19:33:02.694Z,99174.16
2024-01-24T19:35:35.797Z,99182.91
2024-01-24T19:38:08.773Z,99193.56
2024-01-24T19:40:43.346Z,99191.69
2024-01-24T19:43:16.211Z,99181.03
2024-01-24T19:45:49.280Z,99201.28
2024-01-24T19:48:22.551Z,99194.28
2024-01-24T19:50:55.489Z,99195.97
2024-01-24T19:53:33.460Z,99206.63
2024-01-24T19:56:08.827Z,99183.53
2024-01-24T19:58:41.762Z,99189.63
2024-01-24T20:01:14.960Z,99198.47
2024-01-24T20:03:47.967Z,99204.59
2024-01-24T20:06:20.922Z,99201.91
2024-01-24T20:09:02.295Z,99200.94
2024-01-24T20:11:43.054Z,99208.09
2024-01-24T20:14:16.788Z,99200.88
2024-01-24T20:16:50.154Z,99205.59
2024-01-24T20:19:24.784Z,99207.75
2024-01-24T20:21:57.847Z,99198.13
2024-01-24T20:24:33.644Z,99183.03
2024-01-24T20:27:08.715Z,99217.63
2024-01-24T20:29:48.193Z,99209.53
2024-01-24T20:32:29.002Z,99207.75
2024-01-24T20:35:02.269Z,99217.44
2024-01-24T20:37:35.315Z,99212.09
2024-01-24T20:40:09.616Z,99215.75
2024-01-24T20:42:44.844Z,99214.00
2024-01-24T20:45:17.872Z,99214.09
2024-01-24T20:47:57.645Z,99216.00
2024-01-24T20:50:33.924Z,99209.91
2024-01-24T20:53:07.327Z,99212.75
2024-01-24T20:55:40.338Z,99201.22
2024-01-24T20:58:15.213Z,99219.09
2024-01-24T21:00:48.594Z,99222.59
2024-01-24T21:03:21.813Z,99219.09
2024-01-24T21:05:58.248Z,99234.28
2024-01-24T21:08:32.276Z,99213.06
2024-01-24T21:11:05.904Z,99216.75
2024-01-24T21:13:40.187Z,99226.66
2024-01-24T21:16:13.181Z,99229.47
2024-01-24T21:18:47.384Z,99226.03
2024-01-24T21:21:20.566Z,99237.53
2024-01-24T21:23:54.995Z,99226.13
2024-01-24T21:26:28.087Z,99225.41
2024-01-24T21:29:02.299Z,99225.94
2024-01-24T21:31:35.270Z,99228.22
2024-01-24T21:34:08.975Z,99234.03
2024-01-24T21:36:47.670Z,99239.19
2024-01-24T21:39:22.456Z,99258.47
2024-01-24T21:41:55.377Z,99239.41
2024-01-24T21:44:29.611Z,99242.28
2024-01-24T21:47:03.015Z,99245.03
2024-01-24T21:49:39.226Z,99241.69
2024-01-24T21:52:14.745Z,99232.91
2024-01-24T21:54:52.415Z,99224.25
2024-01-24T21:57:25.721Z,99218.06
2024-01-24T21:59:59.982Z,99213.53
2024-01-24T22:02:33.016Z,99219.59
2024-01-24T22:05:06.224Z,99213.34
2024-01-24T22:07:39.514Z,99208.72
2024-01-24T22:10:12.827Z,99207.63
2024-01-24T22:12:46.665Z,99202.94
2024-01-24T22:15:20.794Z,99220.81
2024-01-24T22:17:53.738Z,99216.66
2024-01-24T22:20:26.800Z,99207.75
2024-01-24T22:23:00.114Z,99203.28
2024-01-24T22:25:33.081Z,99215.50
2024-01-24T22:28:06.440Z,99215.50
2024-01-24T22:30:40.742Z,99231.38
2024-01-24T22:33:13.725Z,99219.94
2024-01-24T22:35:46.845Z,99225.16
2024-01-24T22:38:19.734Z,99234.97
2024-01-24T22:40:52.593Z,99237.53
2024-01-24T22:43:25.620Z,99242.00
2024-01-24T22:45:59.905Z,99239.44
2024-01-24T22:48:33.057Z,99248.25
2024-01-24T22:51:06.414Z,99247.50
2024-01-24T22:53:39.337Z,99248.50
2024-01-24T22:56:12.244Z,99250.41
2024-01-24T22:58:45.168Z,99249.63
2024-01-24T23:01:19.696Z,99255.03
2024-01-24T23:03:52.717Z,99258.63
2024-01-24T23:06:25.766Z,99258.69
2024-01-24T23:08:58.597Z,99278.25
2024-01-24T23:11:31.530Z,99283.03
2024-01-24T23:14:06.087Z,99298.63
2024-01-24T23:16:40.292Z,99291.50
2024-01-24T23:19:14.443Z,99300.03
2024-01-24T23:21:47.438Z,99295.16
2024-01-24T23:24:20.370Z,99279.59
2024-01-24T23:26:53.287Z,99266.78
2024-01-24T23:29:26.167Z,99278.56
2024-01-24T23:32:00.618Z,99275.25
2024-01-24T23:34:33.598Z,99264.97
2024-01-24T23:37:06.723Z,99257.16
2024-01-24T23:39:39.772Z,99247.59
2024-01-24T23:42:14.935Z,99255.63
2024-01-24T23:44:47.893Z,99246.97
2024-01-24T23:47:22.174Z,99245.31
2024-01-24T23:49:55.381Z,99236.56
2024-01-24T23:52:28.739Z,99245.53
2024-01-24T23:55:01.736Z,99240.38
2024-01-24T23:57:34.617Z,99251.13
